createdAt,value
2017-11-07T00:00:28.719Z,20.53
2017-11-07T00:02:57.354Z,15.20
2017-11-07T00:05:25.624Z,16.93
2017-11-07T00:07:53.120Z,16.10
2017-11-07T00:10:21.019Z,19.33
2017-11-07T00:12:48.582Z,14.40
2017-11-07T00:15:16.237Z,18.87
2017-11-07T00:17:43.744Z,20.13
2017-11-07T00:20:12.015Z,19.93
2017-11-07T00:22:39.511Z,17.00
2017-11-07T00:25:07.062Z,19.60
2017-11-07T00:27:34.723Z,19.37
2017-11-07T00:30:02.224Z,17.07
2017-11-07T00:32:29.846Z,20.67
2017-11-07T00:34:57.343Z,15.83
2017-11-07T00:37:25.239Z,24.93
2017-11-07T00:39:53.511Z,19.70
2017-11-07T00:42:21.414Z,22.93
2017-11-07T00:44:48.918Z,24.83
2017-11-07T00:47:16.430Z,23.23
2017-11-07T00:49:43.922Z,24.10
2017-11-07T00:52:11.515Z,26.87
2017-11-07T00:54:39.020Z,29.87
2017-11-07T00:57:06.626Z,23.63
2017-11-07T00:59:34.514Z,24.17
2017-11-07T01:02:02.020Z,24.50
2017-11-07T01:04:30.836Z,26.10
2017-11-07T01:06:58.501Z,27.93
2017-11-07T01:09:27.131Z,32.33
2017-11-07T01:11:55.020Z,24.87
2017-11-07T01:14:22.528Z,27.00
2017-11-07T01:16:50.153Z,27.77
2017-11-07T01:19:17.822Z,35.13
2017-11-07T01:21:46.287Z,31.90
2017-11-07T01:24:13.787Z,27.10
2017-11-07T01:26:41.411Z,29.37
2017-11-07T01:29:08.911Z,30.07
2017-11-07T01:31:36.415Z,26.10
2017-11-07T01:34:03.962Z,27.97
2017-11-07T01:36:31.633Z,24.83
2017-11-07T01:38:59.528Z,31.00
2017-11-07T01:41:27.131Z,31.10
2017-11-07T01:43:54.667Z,26.10
2017-11-07T01:46:22.171Z,30.53
2017-11-07T01:48:51.060Z,24.60
2017-11-07T01:51:18.563Z,31.97
2017-11-07T01:53:46.059Z,31.63
2017-11-07T01:56:13.598Z,32.87
2017-11-07T01:58:41.095Z,33.97
2017-11-07T02:01:08.600Z,40.97
2017-11-07T02:03:37.249Z,33.77
2017-11-07T02:06:04.760Z,38.03
2017-11-07T02:08:33.018Z,34.80
2017-11-07T02:11:00.511Z,38.83
2017-11-07T02:13:28.008Z,34.80
2017-11-07T02:15:55.505Z,34.70
2017-11-07T02:18:24.146Z,43.90
2017-11-07T02:20:52.039Z,30.97
2017-11-07T02:23:19.600Z,36.73
2017-11-07T02:25:47.108Z,31.43
2017-11-07T02:28:14.719Z,31.27
2017-11-07T02:30:42.221Z,24.53
2017-11-07T02:33:10.644Z,32.90
2017-11-07T02:35:38.552Z,34.00
2017-11-07T02:38:06.051Z,36.00
2017-11-07T02:40:34.441Z,26.67
2017-11-07T02:43:01.940Z,25.40
2017-11-07T02:45:29.547Z,33.50
2017-11-07T02:47:57.435Z,33.83
2017-11-07T02:50:24.947Z,32.93
2017-11-07T02:52:53.973Z,30.97
2017-11-07T02:55:21.569Z,29.30
2017-11-07T02:57:50.321Z,36.80
2017-11-07T03:00:17.820Z,35.30
2017-11-07T03:02:45.320Z,37.60
2017-11-07T03:05:12.816Z,32.83
2017-11-07T03:07:40.323Z,24.43
2017-11-07T03:10:07.842Z,33.07
2017-11-07T03:12:35.348Z,33.83
2017-11-07T03:15:04.103Z,34.07
2017-11-07T03:17:31.627Z,26.70
2017-11-07T03:19:59.519Z,29.77
2017-11-07T03:22:27.801Z,27.70
2017-11-07T03:24:55.775Z,23.63
2017-11-07T03:27:23.275Z,23.70
2017-11-07T03:29:52.399Z,29.47
2017-11-07T03:32:20.682Z,22.97
2017-11-07T03:34:48.948Z,22.10
2017-11-07T03:37:17.364Z,20.70
2017-11-07T03:39:45.839Z,21.10
2017-11-07T03:42:14.119Z,20.80
2017-11-07T03:44:42.378Z,19.50
2017-11-07T03:47:10.037Z,23.70
2017-11-07T03:49:38.308Z,24.13
2017-11-07T03:52:06.716Z,22.60
2017-11-07T03:54:34.214Z,22.80
2017-11-07T03:57:01.711Z,17.60
2017-11-07T03:59:30.179Z,28.47
2017-11-07T04:01:58.453Z,17.40
2017-11-07T04:04:26.522Z,19.00
2017-11-07T04:06:54.116Z,22.30
2017-11-07T04:09:21.818Z,23.60
2017-11-07T04:11:49.319Z,27.47
2017-11-07T04:14:16.835Z,19.80
2017-11-07T04:16:44.391Z,22.10
2017-11-07T04:19:12.059Z,21.93
2017-11-07T04:21:39.563Z,19.23
2017-11-07T04:24:07.066Z,25.13
2017-11-07T04:26:34.559Z,35.30
2017-11-07T04:29:02.053Z,20.40
2017-11-07T04:31:29.956Z,22.60
2017-11-07T04:33:57.462Z,26.23
2017-11-07T04:36:25.462Z,26.90
2017-11-07T04:38:52.962Z,28.60
2017-11-07T04:41:20.580Z,32.00
2017-11-07T04:43:48.849Z,32.67
2017-11-07T04:46:16.352Z,38.97
2017-11-07T04:48:43.864Z,52.07
2017-11-07T04:51:12.756Z,37.93
2017-11-07T04:53:41.392Z,37.40
2017-11-07T04:56:09.656Z,49.90
2017-11-07T04:58:37.943Z,39.90
2017-11-07T05:01:06.215Z,46.00
2017-11-07T05:03:34.867Z,44.03
2017-11-07T05:06:02.491Z,49.60
2017-11-07T05:08:30.395Z,42.47
2017-11-07T05:10:57.887Z,52.10
2017-11-07T05:13:26.798Z,50.87
2017-11-07T05:15:55.573Z,58.93
2017-11-07T05:18:23.079Z,62.03
2017-11-07T05:20:51.344Z,58.57
2017-11-07T05:23:19.373Z,53.03
2017-11-07T05:25:47.037Z,67.20
2017-11-07T05:28:14.539Z,59.40
2017-11-07T05:30:42.072Z,58.50
2017-11-07T05:33:09.963Z,57.90
2017-11-07T05:35:37.659Z,53.70
2017-11-07T05:38:05.167Z,54.33
2017-11-07T05:40:32.767Z,60.07
2017-11-07T05:43:01.076Z,54.33
2017-11-07T05:45:28.973Z,68.20
2017-11-07T05:47:56.478Z,62.93
2017-11-07T05:50:24.741Z,47.87
2017-11-07T05:52:52.378Z,57.10
2017-11-07T05:55:22.195Z,55.67
2017-11-07T05:57:51.033Z,45.77
2017-11-07T06:00:19.718Z,60.60
2017-11-07T06:02:47.885Z,51.63
2017-11-07T06:05:15.413Z,54.40
2017-11-07T06:07:43.315Z,49.03
2017-11-07T06:10:10.821Z,44.00
2017-11-07T06:12:39.458Z,45.03
2017-11-07T06:15:06.965Z,47.83
2017-11-07T06:17:34.463Z,44.20
2017-11-07T06:20:02.078Z,63.30
2017-11-07T06:22:29.585Z,49.23
2017-11-07T06:24:57.100Z,48.70
2017-11-07T06:27:24.595Z,46.03
2017-11-07T06:29:52.111Z,42.53
2017-11-07T06:32:19.743Z,42.47
2017-11-07T06:34:47.284Z,41.90
2017-11-07T06:37:15.929Z,32.20
2017-11-07T06:39:43.431Z,37.97
2017-11-07T06:42:11.000Z,39.20
2017-11-07T06:44:38.945Z,40.73
2017-11-07T06:47:07.218Z,36.77
2017-11-07T06:49:35.486Z,44.50
2017-11-07T06:52:03.746Z,38.03
2017-11-07T06:54:31.249Z,38.83
2017-11-07T06:56:58.754Z,32.20
2017-11-07T06:59:26.255Z,37.77
2017-11-07T07:01:54.159Z,40.93
2017-11-07T07:04:21.672Z,33.10
2017-11-07T07:06:49.237Z,48.47
2017-11-07T07:09:18.094Z,32.30
2017-11-07T07:11:45.628Z,32.90
2017-11-07T07:14:14.476Z,28.73
2017-11-07T07:16:42.067Z,28.70
2017-11-07T07:19:10.339Z,42.50
2017-11-07T07:21:37.964Z,32.00
2017-11-07T07:24:06.829Z,33.50
2017-11-07T07:26:34.340Z,31.43
2017-11-07T07:29:03.924Z,34.83
2017-11-07T07:31:31.839Z,38.13
2017-11-07T07:33:59.739Z,36.20
2017-11-07T07:36:28.012Z,35.17
2017-11-07T07:38:55.909Z,24.17
2017-11-07T07:41:24.186Z,36.97
2017-11-07T07:43:52.483Z,27.03
2017-11-07T07:46:20.007Z,30.47
2017-11-07T07:48:47.555Z,30.47
2017-11-07T07:51:15.083Z,30.30
2017-11-07T07:53:42.583Z,27.63
2017-11-07T07:56:10.176Z,28.27
2017-11-07T07:58:37.687Z,26.20
2017-11-07T08:01:05.181Z,27.53
2017-11-07T08:03:32.684Z,29.47
2017-11-07T08:06:00.198Z,26.70
2017-11-07T08:08:27.699Z,29.33
2017-11-07T08:10:55.191Z,30.13
2017-11-07T08:13:23.567Z,26.90
2017-11-07T08:15:51.063Z,30.97
2017-11-07T08:18:18.559Z,30.97
2017-11-07T08:20:46.057Z,32.87
2017-11-07T08:23:14.843Z,33.47
2017-11-07T08:25:44.319Z,40.17
2017-11-07T08:28:11.947Z,38.50
2017-11-07T08:30:39.655Z,37.33
2017-11-07T08:33:07.327Z,31.37
2017-11-07T08:35:34.981Z,37.90
2017-11-07T08:38:02.499Z,52.20
2017-11-07T08:40:30.763Z,39.60
2017-11-07T08:42:58.351Z,38.20
2017-11-07T08:45:25.892Z,34.27
2017-11-07T08:47:54.294Z,44.27
2017-11-07T08:50:21.855Z,39.97
2017-11-07T08:52:49.356Z,39.40
2017-11-07T08:55:18.364Z,46.27
2017-11-07T08:57:46.269Z,45.47
2017-11-07T09:00:13.763Z,47.10
2017-11-07T09:02:42.778Z,49.47
2017-11-07T09:05:11.407Z,46.27
2017-11-07T09:07:38.908Z,45.00
2017-11-07T09:10:06.419Z,44.70
2017-11-07T09:12:35.066Z,44.30
2017-11-07T09:15:03.331Z,48.20
2017-11-07T09:17:32.403Z,48.33
2017-11-07T09:19:59.905Z,47.57
2017-11-07T09:22:28.488Z,48.97
2017-11-07T09:24:56.395Z,49.53
2017-11-07T09:27:23.912Z,49.97
2017-11-07T09:29:51.826Z,44.50
2017-11-07T09:32:19.336Z,39.93
2017-11-07T09:34:47.225Z,53.53
2017-11-07T09:37:14.748Z,53.43
2017-11-07T09:39:42.293Z,47.13
2017-11-07T09:42:09.793Z,53.43
2017-11-07T09:44:37.291Z,57.87
2017-11-07T09:47:04.787Z,56.23
2017-11-07T09:49:32.304Z,58.87
2017-11-07T09:52:00.204Z,52.60
2017-11-07T09:54:27.739Z,56.20
2017-11-07T09:56:55.343Z,44.83
2017-11-07T09:59:22.887Z,45.53
2017-11-07T10:01:50.409Z,61.47
2017-11-07T10:04:18.009Z,42.67
2017-11-07T10:06:47.020Z,53.10
2017-11-07T10:09:15.299Z,68.43
2017-11-07T10:11:43.563Z,58.07
2017-11-07T10:14:12.199Z,51.73
2017-11-07T10:16:39.833Z,48.47
2017-11-07T10:19:07.731Z,56.17
2017-11-07T10:21:35.619Z,62.13
2017-11-07T10:24:03.124Z,47.53
2017-11-07T10:26:30.671Z,50.10
2017-11-07T10:28:58.747Z,47.83
2017-11-07T10:31:26.423Z,41.90
2017-11-07T10:33:54.056Z,44.13
2017-11-07T10:36:22.573Z,54.37
2017-11-07T10:38:50.187Z,43.40
2017-11-07T10:41:17.690Z,43.60
2017-11-07T10:43:45.199Z,47.13
2017-11-07T10:46:12.719Z,58.73
2017-11-07T10:48:40.216Z,45.00
2017-11-07T10:51:08.111Z,47.07
2017-11-07T10:53:35.606Z,47.10
2017-11-07T10:56:04.247Z,40.57
2017-11-07T10:58:32.895Z,46.80
2017-11-07T11:01:00.785Z,50.97
2017-11-07T11:03:28.291Z,57.20
2017-11-07T11:05:56.940Z,45.30
2017-11-07T11:08:24.435Z,55.53
2017-11-07T11:10:53.451Z,68.80
2017-11-07T11:13:20.953Z,54.27
2017-11-07T11:15:48.569Z,46.87
2017-11-07T11:18:16.163Z,52.20
2017-11-07T11:20:44.135Z,52.00
2017-11-07T11:23:11.632Z,55.37
2017-11-07T11:25:39.128Z,45.10
2017-11-07T11:28:07.479Z,51.10
2017-11-07T11:30:34.979Z,51.40
2017-11-07T11:33:02.575Z,53.60
2017-11-07T11:35:30.077Z,49.83
2017-11-07T11:37:57.691Z,60.30
2017-11-07T11:40:25.755Z,49.90
2017-11-07T11:42:53.265Z,62.27
2017-11-07T11:45:21.190Z,50.97
2017-11-07T11:47:49.460Z,53.23
2017-11-07T11:50:16.980Z,64.17
2017-11-07T11:52:44.514Z,56.70
2017-11-07T11:55:12.049Z,55.83
2017-11-07T11:57:39.552Z,69.43
2017-11-07T12:00:07.075Z,59.70
2017-11-07T12:02:34.675Z,62.87
2017-11-07T12:05:02.192Z,55.43
2017-11-07T12:07:29.691Z,62.03
2017-11-07T12:09:57.201Z,73.60
2017-11-07T12:12:25.116Z,58.80
2017-11-07T12:14:52.619Z,66.63
2017-11-07T12:17:20.123Z,49.43
2017-11-07T12:19:47.685Z,65.83
2017-11-07T12:22:15.188Z,54.67
2017-11-07T12:24:43.201Z,46.23
2017-11-07T12:27:10.705Z,59.93
2017-11-07T12:29:38.400Z,62.30
2017-11-07T12:32:05.906Z,58.47
2017-11-07T12:34:33.415Z,60.40
2017-11-07T12:37:02.426Z,55.80
2017-11-07T12:39:31.278Z,61.40
2017-11-07T12:41:59.547Z,57.30
2017-11-07T12:44:27.960Z,56.07
2017-11-07T12:46:55.840Z,52.43
2017-11-07T12:49:23.740Z,51.23
2017-11-07T12:51:58.511Z,58.73
2017-11-07T12:54:26.017Z,54.07
2017-11-07T12:56:53.919Z,50.10
2017-11-07T12:59:21.415Z,69.77
2017-11-07T13:01:48.911Z,55.03
2017-11-07T13:04:16.407Z,64.83
2017-11-07T13:06:45.059Z,64.70
2017-11-07T13:09:13.013Z,51.23
2017-11-07T13:11:40.944Z,66.50
2017-11-07T13:14:08.449Z,55.27
2017-11-07T13:16:35.961Z,51.40
2017-11-07T13:19:03.477Z,51.17
2017-11-07T13:21:30.982Z,61.80
2017-11-07T13:23:58.486Z,64.03
2017-11-07T13:26:26.765Z,47.53
2017-11-07T13:28:55.107Z,45.60
2017-11-07T13:31:22.620Z,50.90
2017-11-07T13:33:50.339Z,47.03
2017-11-07T13:36:18.811Z,60.73
2017-11-07T13:38:47.125Z,55.40
2017-11-07T13:41:14.747Z,52.30
2017-11-07T13:43:43.425Z,71.50
2017-11-07T13:46:11.326Z,52.40
2017-11-07T13:48:39.258Z,52.13
2017-11-07T13:51:06.825Z,48.30
2017-11-07T13:53:34.488Z,55.67
2017-11-07T13:56:02.429Z,50.43
2017-11-07T13:58:31.290Z,45.93
2017-11-07T14:00:58.802Z,54.47
2017-11-07T14:03:27.068Z,49.73
2017-11-07T14:05:54.730Z,54.70
2017-11-07T14:08:22.252Z,54.03
2017-11-07T14:10:49.779Z,54.00
2017-11-07T14:13:17.390Z,46.53
2017-11-07T14:15:44.923Z,48.90
2017-11-07T14:18:13.579Z,49.37
2017-11-07T14:20:41.127Z,56.40
2017-11-07T14:23:08.846Z,52.13
2017-11-07T14:25:37.519Z,52.83
2017-11-07T14:28:05.029Z,37.53
2017-11-07T14:30:32.919Z,40.27
2017-11-07T14:33:01.188Z,38.57
2017-11-07T14:35:30.203Z,37.73
2017-11-07T14:37:57.699Z,41.73
2017-11-07T14:40:25.310Z,45.53
2017-11-07T14:42:53.569Z,42.93
2017-11-07T14:45:22.423Z,44.90
2017-11-07T14:47:49.934Z,36.50
2017-11-07T14:50:17.827Z,41.73
2017-11-07T14:52:45.328Z,44.20
2017-11-07T14:55:13.724Z,42.83
2017-11-07T14:57:41.251Z,42.90
2017-11-07T15:00:10.284Z,43.23
2017-11-07T15:02:37.927Z,41.50
2017-11-07T15:05:05.443Z,40.13
2017-11-07T15:07:32.956Z,37.43
2017-11-07T15:10:01.741Z,44.30
2017-11-07T15:12:29.642Z,35.47
2017-11-07T15:14:57.911Z,37.50
2017-11-07T15:17:25.530Z,36.87
2017-11-07T15:19:53.027Z,43.07
2017-11-07T15:22:21.294Z,40.93
2017-11-07T15:24:48.915Z,35.87
2017-11-07T15:27:16.565Z,42.73
2017-11-07T15:29:44.071Z,39.07
2017-11-07T15:32:11.575Z,36.20
2017-11-07T15:34:39.084Z,40.87
2017-11-07T15:37:06.591Z,31.43
2017-11-07T15:39:34.486Z,31.03
2017-11-07T15:42:02.004Z,34.00
2017-11-07T15:44:29.508Z,34.07
2017-11-07T15:46:57.127Z,31.33
2017-11-07T15:49:24.627Z,31.93
2017-11-07T15:51:52.151Z,35.13
2017-11-07T15:54:19.676Z,33.83
2017-11-07T15:56:47.196Z,35.33
2017-11-07T15:59:14.694Z,35.57
2017-11-07T16:01:42.219Z,33.87
2017-11-07T16:04:10.496Z,32.47
2017-11-07T16:06:38.411Z,31.00
2017-11-07T16:09:05.927Z,23.23
2017-11-07T16:11:33.455Z,27.90
2017-11-07T16:14:00.964Z,33.87
2017-11-07T16:16:28.495Z,28.77
2017-11-07T16:18:57.704Z,37.17
2017-11-07T16:21:25.265Z,32.40
2017-11-07T16:23:52.759Z,41.50
2017-11-07T16:26:20.367Z,34.80
2017-11-07T16:28:47.863Z,37.40
2017-11-07T16:31:15.370Z,32.73
2017-11-07T16:33:42.881Z,32.73
2017-11-07T16:36:10.792Z,34.80
2017-11-07T16:38:39.659Z,38.67
2017-11-07T16:41:07.163Z,31.07
2017-11-07T16:43:34.672Z,43.27
2017-11-07T16:46:03.315Z,35.37
2017-11-07T16:48:31.220Z,33.53
2017-11-07T16:50:59.485Z,35.17
2017-11-07T16:53:27.908Z,35.33
2017-11-07T16:55:56.415Z,35.20
2017-11-07T16:58:23.915Z,42.47
2017-11-07T17:00:52.183Z,37.67
2017-11-07T17:03:19.707Z,40.60
2017-11-07T17:05:47.596Z,41.03
2017-11-07T17:08:15.116Z,35.23
2017-11-07T17:10:42.615Z,32.93
2017-11-07T17:13:11.007Z,32.93
2017-11-07T17:15:38.508Z,38.30
2017-11-07T17:18:06.128Z,34.20
2017-11-07T17:20:33.793Z,33.40
2017-11-07T17:23:01.441Z,46.03
2017-11-07T17:25:28.951Z,36.03
2017-11-07T17:27:57.228Z,49.50
2017-11-07T17:30:24.732Z,36.63
2017-11-07T17:32:52.247Z,34.50
2017-11-07T17:35:20.135Z,38.93
2017-11-07T17:37:47.654Z,37.83
2017-11-07T17:40:15.571Z,33.60
2017-11-07T17:42:43.073Z,35.40
2017-11-07T17:45:10.574Z,35.63
2017-11-07T17:47:38.083Z,37.20
2017-11-07T17:50:06.731Z,40.60
2017-11-07T17:52:34.628Z,35.40
2017-11-07T17:55:02.923Z,38.30
2017-11-07T17:57:31.331Z,45.07
2017-11-07T17:59:59.231Z,37.97
2017-11-07T18:02:26.759Z,41.10
2017-11-07T18:04:55.936Z,34.47
2017-11-07T18:07:24.411Z,38.20
2017-11-07T18:09:52.679Z,32.83
2017-11-07T18:12:20.196Z,34.90
2017-11-07T18:14:48.098Z,30.90
2017-11-07T18:17:15.865Z,34.10
2017-11-07T18:19:44.877Z,44.93
2017-11-07T18:22:12.424Z,36.47
2017-11-07T18:24:40.017Z,41.80
2017-11-07T18:27:09.045Z,36.27
2017-11-07T18:29:37.008Z,43.87
2017-11-07T18:32:05.503Z,41.83
2017-11-07T18:34:33.399Z,37.27
2017-11-07T18:37:01.019Z,41.60
2017-11-07T18:39:30.036Z,43.80
2017-11-07T18:41:57.566Z,53.90
2017-11-07T18:44:25.855Z,35.67
2017-11-07T18:46:53.352Z,32.60
2017-11-07T18:49:20.866Z,34.97
2017-11-07T18:51:49.631Z,36.13
2017-11-07T18:54:17.142Z,40.40
2017-11-07T18:56:45.420Z,41.27
2017-11-07T18:59:12.966Z,43.67
2017-11-07T19:01:40.471Z,32.93
2017-11-07T19:04:07.975Z,42.77
2017-11-07T19:06:35.591Z,37.60
2017-11-07T19:09:03.156Z,38.83
2017-11-07T19:11:30.719Z,37.00
2017-11-07T19:13:58.224Z,46.83
2017-11-07T19:16:25.720Z,41.60
2017-11-07T19:18:53.679Z,43.40
2017-11-07T19:21:21.336Z,53.10
2017-11-07T19:23:49.624Z,53.90
2017-11-07T19:26:19.055Z,55.00
2017-11-07T19:28:46.580Z,50.80
2017-11-07T19:31:14.095Z,86.77
2017-11-07T19:33:42.456Z,52.13
2017-11-07T19:36:10.359Z,40.53
2017-11-07T19:38:39.061Z,45.17
2017-11-07T19:41:06.563Z,39.30
2017-11-07T19:43:34.925Z,43.60
2017-11-07T19:46:03.219Z,40.63
2017-11-07T19:48:31.144Z,37.60
2017-11-07T19:50:58.646Z,48.57
2017-11-07T19:53:27.502Z,43.03
2017-11-07T19:55:55.008Z,33.10
2017-11-07T19:58:24.043Z,31.63
2017-11-07T20:00:51.579Z,32.63
2017-11-07T20:03:20.639Z,29.90
2017-11-07T20:05:49.512Z,31.60
2017-11-07T20:08:17.050Z,25.40
2017-11-07T20:10:44.952Z,27.30
2017-11-07T20:13:12.871Z,30.77
2017-11-07T20:15:41.514Z,24.90
2017-11-07T20:18:09.049Z,25.07
2017-11-07T20:20:36.559Z,27.00
2017-11-07T20:23:04.475Z,28.90
2017-11-07T20:25:31.996Z,27.30
2017-11-07T20:28:01.036Z,24.77
2017-11-07T20:30:29.309Z,27.40
2017-11-07T20:32:58.338Z,31.23
2017-11-07T20:35:25.859Z,28.87
2017-11-07T20:37:53.384Z,31.10
2017-11-07T20:40:22.027Z,30.00
2017-11-07T20:42:49.551Z,24.07
2017-11-07T20:45:18.586Z,29.10
2017-11-07T20:47:47.443Z,30.60
2017-11-07T20:50:15.080Z,31.27
2017-11-07T20:52:44.307Z,28.50
2017-11-07T20:55:11.837Z,31.13
2017-11-07T21:03:57.231Z,26.20
2017-11-07T21:06:25.123Z,36.60
2017-11-07T21:08:54.018Z,30.20
2017-11-07T21:11:21.923Z,25.17
2017-11-07T21:13:49.435Z,31.87
2017-11-07T21:16:17.968Z,30.10
2017-11-07T21:18:45.884Z,24.50
2017-11-07T21:21:14.147Z,30.43
2017-11-07T21:23:43.310Z,30.60
2017-11-07T21:26:10.802Z,34.10
2017-11-07T21:28:39.670Z,32.13
2017-11-07T21:31:07.159Z,31.90
2017-11-07T21:33:35.444Z,31.70
2017-11-07T21:36:02.945Z,39.03
2017-11-07T21:38:31.241Z,27.70
2017-11-07T21:41:00.103Z,36.10
2017-11-07T21:43:28.956Z,33.87
2017-11-07T21:45:56.843Z,36.83
2017-11-07T21:48:25.707Z,30.03
2017-11-07T21:50:53.247Z,36.17
2017-11-07T21:53:20.738Z,32.70
2017-11-07T21:55:48.232Z,37.07
2017-11-07T21:58:15.727Z,29.43
2017-11-07T22:00:43.222Z,28.00
2017-11-07T22:03:10.723Z,23.70
2017-11-07T22:05:38.995Z,25.67
2017-11-07T22:08:06.491Z,35.83
2017-11-07T22:10:33.983Z,29.30
2017-11-07T22:13:02.251Z,25.93
2017-11-07T22:15:30.163Z,29.30
2017-11-07T22:18:00.603Z,28.50
2017-11-07T22:20:28.511Z,27.43
2017-11-07T22:22:57.367Z,24.90
2017-11-07T22:25:24.893Z,23.33
2017-11-07T22:27:52.383Z,27.93
2017-11-07T22:30:20.300Z,24.97
2017-11-07T22:32:47.800Z,27.73
2017-11-07T22:35:15.332Z,30.83
2017-11-07T22:37:43.591Z,31.87
2017-11-07T22:40:11.091Z,28.83
2017-11-07T22:42:38.586Z,32.67
2017-11-07T22:45:06.472Z,31.47
2017-11-07T22:47:34.735Z,28.27
2017-11-07T22:50:02.235Z,30.07
2017-11-07T22:52:29.743Z,30.20
2017-11-07T22:54:58.010Z,26.57
2017-11-07T22:57:26.295Z,28.50
2017-11-07T22:59:55.152Z,30.97
2017-11-07T23:02:22.671Z,24.07
2017-11-07T23:04:50.177Z,34.17
2017-11-07T23:07:18.480Z,30.40
2017-11-07T23:09:45.983Z,31.17
2017-11-07T23:12:14.619Z,26.40
2017-11-07T23:14:42.112Z,27.90
2017-11-07T23:17:11.114Z,26.60
2017-11-07T23:19:39.392Z,23.70
2017-11-07T23:22:07.283Z,25.43
2017-11-07T23:24:34.891Z,22.20
2017-11-07T23:27:02.395Z,26.57
2017-11-07T23:29:29.915Z,29.40
2017-11-07T23:31:58.193Z,20.20
2017-11-07T23:34:25.730Z,25.40
2017-11-07T23:36:54.578Z,18.30
2017-11-07T23:39:22.467Z,17.90
2017-11-07T23:41:50.121Z,29.10
2017-11-07T23:44:17.619Z,17.57
2017-11-07T23:46:45.136Z,15.47
2017-11-07T23:49:13.035Z,20.37
2017-11-07T23:51:40.552Z,20.90
2017-11-07T23:54:09.183Z,16.07
2017-11-07T23:56:36.712Z,16.67
2017-11-07T23:59:04.211Z,17.20
